• Join FlightAware (Why Join?)
  • Login
  • US Flag 
02:52AM EDT


 

Airport Tracker/Info


-or-


 

Live Flight TrackerFlight Track Log ✈ ACA831 ✈ 29-Jun-2013 ✈ LSGG / GVA - CYUL

Flight Track Log - Related Links

Times and Time Zones

All times are in EDT time to prevent confusion due to time zone crossing. See the ACA831 flight status page for this flight to view local times or setup timezone preferences in your user account.

Time Position Orientation Groundspeed Altitude Reporting Facility
EDT Latitude Longitude Course Direction KTS MPH feet Rate Location/Type
06:26AM 46.2310 6.1050 215° Southwest 5 6  Level FlightAware
06:27AM 46.2300 6.1060 145° Southeast 4 5 120 Level FlightAware
06:28AM 46.2300 6.1070 90° East 8 9 180 Level FlightAware
06:28AM 46.2310 6.1080 35° Northeast 7 8 180 Level FlightAware
06:29AM 46.2320 6.1070 325° Northwest 7 8 180 Level FlightAware
06:29AM 46.2330 6.1080 35° Northeast 10 12 180 Level FlightAware
06:32AM 46.2500 5.7206 270° West  Level FlightAware Approximate
06:33AM 46.2500 5.5415 270° West  Level FlightAware Approximate
06:33AM 46.2420 6.1200 270° West 13 15  Level FlightAware
06:35AM 46.3594 5.8283 282° West  Level Estimated
06:36AM 46.4214 5.6729 270° West  Level Estimated
06:37AM 46.4832 5.5172 276° West  Level Estimated
06:37AM 46.2480 6.1260 276° West 11 13  Level FlightAware
06:37AM 46.2400 6.1150 224° Southwest 145 167 1,980 Level FlightAware
06:38AM 46.2240 6.0900 227° Southwest 173 199 2,000 3,420 Climbing FlightAware
06:38AM 46.2060 6.0650 224° Southwest 182 209 3,400 2,460 Climbing FlightAware
06:39AM 46.1910 6.0430 225° Southwest 186 214 4,400 2,280 Climbing FlightAware
06:39AM 46.1760 6.0210 225° Southwest 188 216 5,300 2,280 Climbing FlightAware
06:39AM 46.1600 5.9970 226° Southwest 191 220 6,200 1,920 Climbing FlightAware
06:42AM 46.2929 5.6670 270° West  Level Estimated
06:43AM 46.3549 5.5118 276° West  Level Estimated
06:43AM 46.0140 5.7020 276° West 323 372 12,900  Level FlightAware
06:43AM 45.9820 5.6290 238° Southwest 330 380 14,700 2,040 Climbing FlightAware
06:44AM 45.9440 5.5440 237° Southwest 361 415 15,800 1,860 Climbing FlightAware
06:45AM 45.9110 5.4680 238° Southwest 372 428 17,200 1,920 Climbing FlightAware
06:45AM 45.8740 5.3830 238° Southwest 394 453 18,300 1,260 Climbing FlightAware
06:46AM 45.8120 5.2400 238° Southwest 441 507 19,300 1,260 Climbing FlightAware
06:47AM 45.7640 5.1300 238° Southwest 447 514 20,500 1,560 Climbing FlightAware
06:47AM 45.7580 5.0980 255° West 437 503 20,800 1,680 Climbing FlightAware
06:48AM 45.7570 5.0510 268° West 425 489 21,300 1,740 Climbing FlightAware
06:48AM 45.7580 4.9310 271° West 439 505 22,500 1,740 Climbing FlightAware
06:49AM 45.7660 4.8130 276° West 442 509 23,700 1,680 Climbing FlightAware
06:50AM 45.7760 4.7090 278° West 449 517 24,700 1,500 Climbing FlightAware
06:50AM 45.7880 4.5870 278° West 456 525 25,700 1,740 Climbing FlightAware
06:51AM 45.8030 4.4340 278° West 453 521 27,400 1,920 Climbing FlightAware
06:52AM 45.8130 4.3170 277° West 449 517 28,700 1,740 Climbing FlightAware
06:53AM 45.8230 4.1970 277° West 452 520 29,800 1,500 Climbing FlightAware
06:53AM 45.8280 4.0750 273° West 454 522 30,800 1,440 Climbing FlightAware
06:54AM 45.8310 3.9370 272° West 453 521 31,900 540 Climbing FlightAware
06:55AM 45.8370 3.6990 272° West 448 516 32,000  Climbing FlightAware
06:56AM 45.8410 3.5190 272° West 452 520 32,000  Level FlightAware
06:57AM 45.8450 3.3500 272° West 454 522 32,000  Level FlightAware
06:58AM 45.8460 3.2320 271° West 454 522 32,000  Level FlightAware
06:59AM 45.8480 3.1240 272° West 454 522 32,000  Level FlightAware
06:59AM 45.8500 3.0100 271° West 453 521 32,000  Level FlightAware
07:00AM 45.8530 2.8550 272° West 452 520 32,000  Level FlightAware
07:01AM 45.8550 2.7250 271° West 451 519 32,000  Level FlightAware
07:02AM 45.8570 2.5680 271° West 451 519 32,000  Level FlightAware
07:02AM 45.8580 2.4740 271° West 451 519 32,000  Level FlightAware
07:03AM 45.8610 2.3130 272° West 454 522 32,000  Level FlightAware
07:04AM 45.8630 2.1800 271° West 454 522 32,000  Level FlightAware
07:04AM 45.8640 2.0640 271° West 455 524 32,000  Level FlightAware
07:05AM 45.8670 1.8970 272° West 456 525 32,000  Level FlightAware
07:07AM 45.8710 1.6020 271° West 456 525 32,000  Level FlightAware
07:08AM 45.8740 1.4720 272° West 457 526 32,000  Level FlightAware
07:08AM 45.8760 1.3380 271° West 457 526 32,000  Level FlightAware
07:09AM 45.8790 1.2190 272° West 457 526 32,000  Level FlightAware
07:10AM 45.8820 1.0690 272° West 457 526 32,000  Level FlightAware
07:11AM 45.8880 0.8110 272° West 456 525 32,000  Level FlightAware
07:12AM 45.8910 0.6830 272° West 456 525 32,000  Level FlightAware
07:13AM 45.8950 0.4950 272° West 456 525 32,000  Level FlightAware
07:14AM 45.8980 0.3740 272° West 457 526 32,000  Level FlightAware
07:15AM 45.9040 0.1680 272° West 456 525 32,000  Level FlightAware
07:16AM 45.9100 -0.0180 273° West 456 525 32,000  Level FlightAware
07:17AM 45.9140 -0.1360 273° West 456 525 32,000  Level FlightAware
07:17AM 45.9180 -0.2590 273° West 456 525 32,000  Level FlightAware
07:18AM 45.9220 -0.3800 273° West 458 527 32,000  Level FlightAware
07:19AM 45.9210 -0.5290 270° West 458 527 32,000  Level FlightAware
07:19AM 45.9250 -0.6540 273° West 457 526 32,000  Level FlightAware
07:20AM 45.9290 -0.7600 273° West 457 526 32,000  Level FlightAware
07:21AM 45.9360 -0.9100 274° West 457 526 32,000  Level FlightAware
07:22AM 45.9410 -1.0250 274° West 457 526 32,000  Level FlightAware
07:22AM 45.9450 -1.1370 273° West 457 526 32,000  Level FlightAware
07:23AM 45.9520 -1.2810 274° West 458 527 32,000  Level FlightAware
07:24AM 45.9570 -1.4010 273° West 458 527 32,000  Level FlightAware
07:25AM 45.9640 -1.6140 273° West 458 527 32,000  Level FlightAware
07:25AM 45.9680 -1.7390 273° West 459 528 32,000  Level FlightAware
07:26AM 45.9730 -1.8800 273° West 459 528 32,000  Level FlightAware
07:27AM 45.9780 -2.0200 273° West 460 529 32,000  Level FlightAware
07:28AM 45.9820 -2.1440 273° West 460 529 32,000  Level FlightAware
07:28AM 45.9860 -2.2760 273° West 461 531 32,000  Level FlightAware
07:29AM 45.9900 -2.4040 273° West 462 532 32,000  Level FlightAware
07:29AM 45.9920 -2.4760 272° West 462 532 32,000  Level FlightAware
07:32AM 46.1081 -2.8112 297° West  Level Estimated
07:33AM 46.1631 -2.9714 296° West  Level Estimated
07:34AM 46.2178 -3.1318 296° West  Level Estimated
07:35AM 46.2723 -3.2926 296° West  Level Estimated
07:36AM 46.3266 -3.4537 296° West  Level Estimated
07:37AM 46.3807 -3.6151 296° West  Level Estimated
07:38AM 46.4345 -3.7768 296° West  Level Estimated
07:39AM 46.4881 -3.9389 296° West  Level Estimated
07:39AM 46.0280 -4.2690 296° West 465 535 32,000  Level FlightAware
07:40AM 46.5415 -4.1012 296° West  Level Estimated
07:40AM 46.0300 -4.4300 271° West 465 535 32,000  Level FlightAware
07:41AM 46.0320 -4.5960 271° West 466 536 32,000  Level FlightAware
07:42AM 46.0330 -4.7270 271° West 466 536 32,000  Level FlightAware
07:42AM 46.0350 -4.8430 271° West 466 536 32,000  Level FlightAware
07:43AM 46.0360 -4.9790 271° West 467 537 32,000  Level FlightAware
07:44AM 46.0370 -5.1090 271° West 467 537 32,000  Level FlightAware
07:44AM 46.0370 -5.2300 270° West 468 539 32,000 -240 Level FlightAware
07:47AM 46.1551 -5.5906 295° West  Level Estimated
07:48AM 46.2076 -5.7526 295° West  Level Estimated
07:49AM 46.2599 -5.9149 295° West  Level Estimated
07:50AM 46.3119 -6.0775 295° West  Level Estimated
07:51AM 46.3637 -6.2404 295° West  Level Estimated
07:52AM 46.4153 -6.4036 295° West  Level Estimated
07:52AM 46.0330 -6.6410 295° West 473 544 30,000  Level FlightAware
07:53AM 46.0320 -6.7420 269° West 473 544 30,000  Level FlightAware
07:54AM 46.0310 -6.8420 269° West 473 544 30,000  Level FlightAware
07:54AM 46.0290 -6.9730 269° West 473 544 30,000  Level FlightAware
07:57AM 46.0194 -7.3502 268° West  Level FlightAware Approximate
07:57AM 46.0240 -7.3690 268° West 473 544 30,000  Level FlightAware
07:58AM 46.0220 -7.6000 269° West 473 544 30,000  Level FlightAware
07:59AM 46.0200 -7.7260 269° West 473 544 30,000 60 Level FlightAware
08:02AM 46.0004 -8.1583 270° West  Level FlightAware Approximate
08:03AM 46.0006 -8.3366 270° West  Level FlightAware Approximate
08:04AM 46.0005 -8.5148 270° West  Level FlightAware Approximate
08:05AM 46.0002 -8.6931 270° West  Level FlightAware Approximate
08:06AM 46.0032 -8.8712 272° West  Level FlightAware Approximate
08:07AM 46.0078 -9.0494 272° West  Level FlightAware Approximate
08:08AM 46.0120 -9.2276 272° West  Level FlightAware Approximate
08:09AM 46.0160 -9.4058 272° West  Level FlightAware Approximate
08:10AM 46.0197 -9.5840 272° West  Level FlightAware Approximate
08:11AM 46.0231 -9.7623 272° West  Level FlightAware Approximate
08:12AM 46.0263 -9.9406 272° West  Level FlightAware Approximate
08:13AM 46.0291 -10.1189 271° West  Level FlightAware Approximate
08:13AM 46.0350 -10.6530 271° West 482 555 31,000  Level FlightAware
08:14AM 46.0350 -10.7840 270° West 482 555 31,000  Level FlightAware
08:14AM 46.0350 -10.8880 270° West 482 555 31,000  Level FlightAware
08:14AM 46.0350 -10.9200 270° West 482 555 31,000  Level FlightAware
08:18AM 46.0387 -11.4670 271° West  Level FlightAware Approximate
08:19AM 46.0394 -11.6454 270° West  Level FlightAware Approximate
08:20AM 46.0398 -11.8237 270° West  Level FlightAware Approximate
08:21AM 46.0399 -12.0021 270° West  Level FlightAware Approximate
08:22AM 46.0397 -12.1805 270° West  Level FlightAware Approximate
08:23AM 46.0392 -12.3589 270° West  Level FlightAware Approximate
08:23AM 46.0340 -12.2910 270° West 482 555 31,000  Level FlightAware
08:26AM 46.1604 -12.7373 292° West  Level Estimated
08:27AM 46.2068 -12.9032 292° West  Level Estimated
08:28AM 46.2529 -13.0693 292° West  Level Estimated
08:29AM 46.2989 -13.2357 292° West  Level Estimated
08:30AM 46.3445 -13.4023 292° West  Level Estimated
08:31AM 46.3899 -13.5693 292° West  Level Estimated
08:32AM 46.4351 -13.7365 291° West  Level Estimated
08:33AM 46.4800 -13.9040 291° West  Level Estimated
08:34AM 46.5247 -14.0718 291° West  Level Estimated
08:35AM 46.5692 -14.2398 291° West  Level Estimated
08:36AM 46.6133 -14.4082 291° West  Level Estimated
08:37AM 46.6573 -14.5768 291° West  Level Estimated
08:38AM 46.7010 -14.7456 291° West  Level Estimated
08:39AM 46.7444 -14.9148 291° West  Level Estimated
08:40AM 46.7877 -15.0842 290° West  Level Estimated
08:41AM 46.8306 -15.2539 290° West  Level Estimated
08:42AM 46.8733 -15.4239 290° West  Level Estimated
08:43AM 46.9157 -15.5941 290° West  Level Estimated
08:44AM 46.9579 -15.7646 290° West  Level Estimated
08:45AM 46.9999 -15.9354 290° West  Level Estimated
08:46AM 47.0415 -16.1060 290° West  Level Estimated
08:47AM 47.0828 -16.2770 290° West  Level Estimated
08:48AM 47.1239 -16.4481 289° West  Level Estimated
08:49AM 47.1647 -16.6196 289° West  Level Estimated
08:50AM 47.2053 -16.7913 289° West  Level Estimated
08:51AM 47.2456 -16.9633 289° West  Level Estimated
08:52AM 47.2857 -17.1355 289° West  Level Estimated
08:53AM 47.3255 -17.3080 289° West  Level Estimated
08:54AM 47.3650 -17.4808 289° West  Level Estimated
08:55AM 47.4043 -17.6538 289° West  Level Estimated
08:56AM 47.4433 -17.8271 288° West  Level Estimated
08:57AM 47.4821 -18.0006 288° West  Level Estimated
08:58AM 47.5206 -18.1744 288° West  Level Estimated
08:59AM 47.5588 -18.3484 288° West  Level Estimated
09:00AM 47.5968 -18.5227 288° West  Level Estimated
09:01AM 47.6345 -18.6973 288° West  Level Estimated
09:02AM 47.6719 -18.8721 288° West  Level Estimated
09:03AM 47.7091 -19.0471 288° West  Level Estimated
09:04AM 47.7460 -19.2224 287° West  Level Estimated
09:05AM 47.7827 -19.3980 287° West  Level Estimated
09:06AM 47.8190 -19.5738 287° West  Level Estimated
09:07AM 47.8551 -19.7498 287° West  Level Estimated
09:07AM 46.0000 -20.0000 274° West 446 513 31,000  Level ETMS Enhanced Traffic Management System
09:08AM 47.8910 -19.9261 287° West  Level Estimated
09:09AM 47.9265 -20.1026 287° West  Level Estimated
09:10AM 47.9617 -20.2790 287° West  Level Estimated
09:11AM 47.9967 -20.4556 287° West  Level Estimated
09:12AM 48.0314 -20.6325 286° West  Level Estimated
09:13AM 46.0588 -21.6047 272° West 446 513 31,000  Level FlightAware Transoceanic
09:14AM 46.0640 -21.7832 272° West 446 513 31,000  Level FlightAware Transoceanic
09:15AM 46.0689 -21.9618 272° West 446 513 31,000  Level FlightAware Transoceanic
09:16AM 46.0735 -22.1403 272° West 446 513 31,000  Level FlightAware Transoceanic
09:17AM 46.0778 -22.3189 272° West 446 513 31,000  Level FlightAware Transoceanic
09:18AM 46.0818 -22.4975 272° West 446 513 31,000  Level FlightAware Transoceanic
09:19AM 46.0856 -22.6762 272° West 446 513 31,000  Level FlightAware Transoceanic
09:20AM 46.0891 -22.8548 272° West 446 513 31,000  Level FlightAware Transoceanic
09:21AM 46.0923 -23.0335 271° West 446 513 31,000  Level FlightAware Transoceanic
09:22AM 46.0952 -23.2122 271° West 446 513 31,000  Level FlightAware Transoceanic
09:23AM 46.0979 -23.3910 271° West 446 513 31,000  Level FlightAware Transoceanic
09:24AM 46.1002 -23.5697 271° West 446 513 31,000  Level FlightAware Transoceanic
09:25AM 46.1023 -23.7484 271° West 446 513 31,000  Level FlightAware Transoceanic
09:26AM 46.1041 -23.9272 271° West 446 513 31,000  Level FlightAware Transoceanic
09:27AM 46.1057 -24.1060 271° West 446 513 31,000  Level FlightAware Transoceanic
09:28AM 46.1069 -24.2848 271° West 446 513 31,000  Level FlightAware Transoceanic
09:29AM 46.1079 -24.4636 270° West 446 513 31,000  Level FlightAware Transoceanic
09:30AM 46.1086 -24.6424 270° West 446 513 31,000  Level FlightAware Transoceanic
09:31AM 46.1090 -24.8212 270° West 446 513 31,000  Level FlightAware Transoceanic
09:32AM 46.1091 -25.0000 270° West 446 513 31,000  Level FlightAware Transoceanic
09:33AM 46.1090 -25.1788 270° West 446 513 31,000  Level FlightAware Transoceanic
09:34AM 46.1086 -25.3576 270° West 446 513 31,000  Level FlightAware Transoceanic
09:35AM 46.1079 -25.5364 270° West 446 513 31,000  Level FlightAware Transoceanic
09:36AM 46.1069 -25.7152 269° West 446 513 31,000  Level FlightAware Transoceanic
09:37AM 46.1057 -25.8940 269° West 446 513 31,000  Level FlightAware Transoceanic
09:38AM 46.1041 -26.0728 269° West 446 513 31,000  Level FlightAware Transoceanic
09:39AM 46.1023 -26.2516 269° West 446 513 31,000  Level FlightAware Transoceanic
09:40AM 46.1002 -26.4303 269° West 446 513 31,000  Level FlightAware Transoceanic
09:41AM 46.0979 -26.6090 269° West 446 513 31,000  Level FlightAware Transoceanic
09:42AM 46.0952 -26.7878 269° West 446 513 31,000  Level FlightAware Transoceanic
09:43AM 46.0923 -26.9665 269° West 446 513 31,000  Level FlightAware Transoceanic
09:44AM 46.0891 -27.1452 268° West 446 513 31,000  Level FlightAware Transoceanic
09:45AM 46.0856 -27.3238 268° West 446 513 31,000  Level FlightAware Transoceanic
09:46AM 46.0818 -27.5025 268° West 446 513 31,000  Level FlightAware Transoceanic
09:47AM 46.0778 -27.6811 268° West 446 513 31,000  Level FlightAware Transoceanic
09:48AM 46.0735 -27.8597 268° West 446 513 31,000  Level FlightAware Transoceanic
09:49AM 46.0689 -28.0382 268° West 446 513 31,000  Level FlightAware Transoceanic
09:50AM 46.0640 -28.2168 268° West 446 513 31,000  Level FlightAware Transoceanic
09:51AM 46.0588 -28.3953 268° West 446 513 31,000  Level FlightAware Transoceanic
09:52AM 46.0534 -28.5737 267° West 446 513 31,000  Level FlightAware Transoceanic
09:53AM 46.0477 -28.7522 267° West 446 513 31,000  Level FlightAware Transoceanic
09:54AM 46.0417 -28.9305 267° West 446 513 31,000  Level FlightAware Transoceanic
09:55AM 46.0355 -29.1089 267° West 446 513 31,000  Level FlightAware Transoceanic
09:56AM 46.0289 -29.2872 267° West 446 513 31,000  Level FlightAware Transoceanic
09:57AM 46.0221 -29.4655 267° West 446 513 31,000  Level FlightAware Transoceanic
09:58AM 46.0150 -29.6437 267° West 446 513 31,000  Level FlightAware Transoceanic
09:59AM 46.0076 -29.8219 267° West 446 513 31,000  Level FlightAware Transoceanic
10:00AM 46.0000 -29.9990 267° West  Level FlightAware Approximate
10:01AM 45.9927 -30.1762 267° West  Level FlightAware Approximate
10:02AM 45.9899 -30.1749 265° West  Level FlightAware Approximate
10:03AM 45.9794 -30.3517 265° West  Level FlightAware Approximate
10:03AM 46.0000 -30.0000 265° West 446 513 31,000  Level ETMS Enhanced Traffic Management System
10:04AM 45.9686 -30.5284 265° West  Level FlightAware Approximate
10:05AM 45.9576 -30.7050 265° West  Level FlightAware Approximate
10:06AM 45.9463 -30.8816 265° West  Level FlightAware Approximate
10:07AM 45.9347 -31.0581 265° West  Level FlightAware Approximate
10:08AM 45.9229 -31.2346 265° West  Level FlightAware Approximate
10:09AM 45.9128 -31.4229 264° West 446 513 31,000  Level FlightAware Transoceanic
10:10AM 45.9006 -31.6004 264° West 446 513 31,000  Level FlightAware Transoceanic
10:11AM 45.8882 -31.7778 264° West 446 513 31,000  Level FlightAware Transoceanic
10:12AM 45.8755 -31.9552 264° West 446 513 31,000  Level FlightAware Transoceanic
10:13AM 45.8625 -32.1325 264° West 446 513 31,000  Level FlightAware Transoceanic
10:14AM 45.8493 -32.3097 264° West 446 513 31,000  Level FlightAware Transoceanic
10:15AM 45.8358 -32.4868 264° West 446 513 31,000  Level FlightAware Transoceanic
10:16AM 45.8220 -32.6639 264° West 446 513 31,000  Level FlightAware Transoceanic
10:17AM 45.8079 -32.8408 263° West 446 513 31,000  Level FlightAware Transoceanic
10:18AM 45.7936 -33.0177 263° West 446 513 31,000  Level FlightAware Transoceanic
10:19AM 45.7790 -33.1944 263° West 446 513 31,000  Level FlightAware Transoceanic
10:20AM 45.7641 -33.3711 263° West 446 513 31,000  Level FlightAware Transoceanic
10:21AM 45.7489 -33.5477 263° West 446 513 31,000  Level FlightAware Transoceanic
10:22AM 45.7335 -33.7242 263° West 446 513 31,000  Level FlightAware Transoceanic
10:23AM 45.7178 -33.9006 263° West 446 513 31,000  Level FlightAware Transoceanic
10:24AM 45.7019 -34.0768 263° West 446 513 31,000  Level FlightAware Transoceanic
10:25AM 45.6856 -34.2530 262° West 446 513 31,000  Level FlightAware Transoceanic
10:26AM 45.6691 -34.4291 262° West 446 513 31,000  Level FlightAware Transoceanic
10:27AM 45.6523 -34.6051 262° West 446 513 31,000  Level FlightAware Transoceanic
10:28AM 45.6353 -34.7809 262° West 446 513 31,000  Level FlightAware Transoceanic
10:29AM 45.6180 -34.9567 262° West 446 513 31,000  Level FlightAware Transoceanic
10:30AM 45.6004 -35.1323 262° West 446 513 31,000  Level FlightAware Transoceanic
10:31AM 45.5825 -35.3079 262° West 446 513 31,000  Level FlightAware Transoceanic
10:32AM 45.5644 -35.4833 262° West 446 513 31,000  Level FlightAware Transoceanic
10:33AM 45.5460 -35.6586 261° West 446 513 31,000  Level FlightAware Transoceanic
10:34AM 45.5273 -35.8338 261° West 446 513 31,000  Level FlightAware Transoceanic
10:35AM 45.5084 -36.0089 261° West 446 513 31,000  Level FlightAware Transoceanic
10:36AM 45.4892 -36.1838 261° West 446 513 31,000  Level FlightAware Transoceanic
10:37AM 45.4697 -36.3587 261° West 446 513 31,000  Level FlightAware Transoceanic
10:38AM 45.4500 -36.5334 261° West 446 513 31,000  Level FlightAware Transoceanic
10:39AM 45.4300 -36.7080 261° West 446 513 31,000  Level FlightAware Transoceanic
10:40AM 45.4097 -36.8825 261° West 446 513 31,000  Level FlightAware Transoceanic
10:41AM 45.3892 -37.0568 260° West 446 513 31,000  Level FlightAware Transoceanic
10:42AM 45.3684 -37.2310 260° West 446 513 31,000  Level FlightAware Transoceanic
10:43AM 45.3474 -37.4051 260° West 446 513 31,000  Level FlightAware Transoceanic
10:44AM 45.3260 -37.5791 260° West 446 513 31,000  Level FlightAware Transoceanic
10:45AM 45.3045 -37.7529 260° West 446 513 31,000  Level FlightAware Transoceanic
10:46AM 45.2826 -37.9266 260° West 446 513 31,000  Level FlightAware Transoceanic
10:47AM 45.2605 -38.1001 260° West 446 513 31,000  Level FlightAware Transoceanic
10:48AM 45.2381 -38.2736 260° West 446 513 31,000  Level FlightAware Transoceanic
10:49AM 45.2155 -38.4468 259° West 446 513 31,000  Level FlightAware Transoceanic
10:50AM 45.1926 -38.6200 259° West 446 513 31,000  Level FlightAware Transoceanic
10:51AM 45.1694 -38.7930 259° West 446 513 31,000  Level FlightAware Transoceanic
10:52AM 45.1460 -38.9659 259° West 446 513 31,000  Level FlightAware Transoceanic
10:53AM 45.1223 -39.1386 259° West 446 513 31,000  Level FlightAware Transoceanic
10:54AM 45.0984 -39.3112 259° West 446 513 31,000  Level FlightAware Transoceanic
10:55AM 45.0742 -39.4836 259° West 446 513 31,000  Level FlightAware Transoceanic
10:56AM 45.0497 -39.6559 259° West 446 513 31,000  Level FlightAware Transoceanic
10:57AM 45.0250 -39.8280 258° West 446 513 31,000 360 Level FlightAware Transoceanic
10:58AM 45.0002 -39.9988 258° West  Level FlightAware Approximate
10:59AM 44.9752 -40.1695 258° West  Level FlightAware Approximate
11:00AM 44.9899 -40.1714 265° West  Level FlightAware Approximate
11:01AM 44.9794 -40.3451 265° West  Level FlightAware Approximate
11:01AM 45.0000 -40.0000 266° West 454 522 33,000  Level ETMS Enhanced Traffic Management System
11:02AM 44.9687 -40.5187 265° West  Level FlightAware Approximate
11:03AM 44.9577 -40.6918 265° West  Level FlightAware Approximate
11:04AM 44.9465 -40.8649 265° West  Level FlightAware Approximate
11:05AM 44.9350 -41.0380 265° West  Level FlightAware Approximate
11:06AM 44.9232 -41.2109 265° West  Level FlightAware Approximate
11:07AM 44.9128 -41.4222 265° West 454 522 33,000  Level FlightAware Transoceanic
11:08AM 44.9006 -41.5997 264° West 454 522 33,000  Level FlightAware Transoceanic
11:09AM 44.8882 -41.7771 264° West 454 522 33,000  Level FlightAware Transoceanic
11:10AM 44.8755 -41.9543 264° West 454 522 33,000  Level FlightAware Transoceanic
11:11AM 44.8625 -42.1316 264° West 454 522 33,000  Level FlightAware Transoceanic
11:12AM 44.8493 -42.3087 264° West 454 522 33,000  Level FlightAware Transoceanic
11:13AM 44.8358 -42.4858 264° West 454 522 33,000  Level FlightAware Transoceanic
11:14AM 44.8220 -42.6628 264° West 454 522 33,000  Level FlightAware Transoceanic
11:15AM 44.8079 -42.8397 264° West 454 522 33,000  Level FlightAware Transoceanic
11:16AM 44.7936 -43.0165 263° West 454 522 33,000  Level FlightAware Transoceanic
11:17AM 44.7790 -43.1932 263° West 454 522 33,000  Level FlightAware Transoceanic
11:18AM 44.7641 -43.3698 263° West 454 522 33,000  Level FlightAware Transoceanic
11:19AM 44.7489 -43.5463 263° West 454 522 33,000  Level FlightAware Transoceanic
11:20AM 44.7335 -43.7228 263° West 454 522 33,000  Level FlightAware Transoceanic
11:21AM 44.7178 -43.8991 263° West 454 522 33,000  Level FlightAware Transoceanic
11:22AM 44.7019 -44.0754 263° West 454 522 33,000  Level FlightAware Transoceanic
11:23AM 44.6856 -44.2515 263° West 454 522 33,000  Level FlightAware Transoceanic
11:24AM 44.6691 -44.4276 262° West 454 522 33,000  Level FlightAware Transoceanic
11:25AM 44.6523 -44.6036 262° West 454 522 33,000  Level FlightAware Transoceanic
11:26AM 44.6353 -44.7794 262° West 454 522 33,000  Level FlightAware Transoceanic
11:27AM 44.6180 -44.9552 262° West 454 522 33,000  Level FlightAware Transoceanic
11:28AM 44.6004 -45.1308 262° West 454 522 33,000  Level FlightAware Transoceanic
11:29AM 44.5825 -45.3063 262° West 454 522 33,000  Level FlightAware Transoceanic
11:30AM 44.5644 -45.4818 262° West 454 522 33,000  Level FlightAware Transoceanic
11:31AM 44.5460 -45.6571 262° West 454 522 33,000  Level FlightAware Transoceanic
11:32AM 44.5273 -45.8323 261° West 454 522 33,000  Level FlightAware Transoceanic
11:33AM 44.5084 -46.0074 261° West 454 522 33,000  Level FlightAware Transoceanic
11:34AM 44.4892 -46.1823 261° West 454 522 33,000  Level FlightAware Transoceanic
11:35AM 44.4697 -46.3572 261° West 454 522 33,000  Level FlightAware Transoceanic
11:36AM 44.4500 -46.5319 261° West 454 522 33,000  Level FlightAware Transoceanic
11:37AM 44.4300 -46.7066 261° West 454 522 33,000  Level FlightAware Transoceanic
11:38AM 44.4098 -46.8811 261° West 454 522 33,000  Level FlightAware Transoceanic
11:39AM 44.3892 -47.0555 261° West 454 522 33,000  Level FlightAware Transoceanic
11:40AM 44.3684 -47.2297 260° West 454 522 33,000  Level FlightAware Transoceanic
11:41AM 44.3474 -47.4038 260° West 454 522 33,000  Level FlightAware Transoceanic
11:42AM 44.3260 -47.5779 260° West 454 522 33,000  Level FlightAware Transoceanic
11:43AM 44.3045 -47.7517 260° West 454 522 33,000  Level FlightAware Transoceanic
11:44AM 44.2826 -47.9255 260° West 454 522 33,000  Level FlightAware Transoceanic
11:45AM 44.2605 -48.0991 260° West 454 522 33,000  Level FlightAware Transoceanic
11:46AM 44.2381 -48.2726 260° West 454 522 33,000  Level FlightAware Transoceanic
11:47AM 44.2155 -48.4460 260° West 454 522 33,000  Level FlightAware Transoceanic
11:48AM 44.1926 -48.6192 259° West 454 522 33,000  Level FlightAware Transoceanic
11:49AM 44.1694 -48.7923 259° West 454 522 33,000  Level FlightAware Transoceanic
11:50AM 44.1460 -48.9652 259° West 454 522 33,000  Level FlightAware Transoceanic
11:51AM 44.1223 -49.1380 259° West 454 522 33,000  Level FlightAware Transoceanic
11:52AM 44.0984 -49.3107 259° West 454 522 33,000  Level FlightAware Transoceanic
11:53AM 44.0742 -49.4832 259° West 454 522 33,000  Level FlightAware Transoceanic
11:54AM 44.0497 -49.6556 259° West 454 522 33,000  Level FlightAware Transoceanic
11:55AM 44.0250 -49.8279 259° West 454 522 33,000  Level FlightAware Transoceanic
11:56AM 44.0528 -49.9925 283° West  Level Estimated
11:57AM 44.0803 -50.1573 283° West  Level Estimated
11:58AM 44.1076 -50.3223 283° West  Level Estimated
11:58AM 44.0000 -50.0000 274° West 458 527 33,000  Level New York Oceanic (ODAPS)
11:59AM 44.1347 -50.4874 283° West  Level Estimated
12:00PM 44.1615 -50.6526 283° West  Level Estimated
12:01PM 44.1883 -50.8194 283° West  Level Estimated
12:02PM 44.2149 -50.9864 283° West  Level Estimated
12:03PM 44.2412 -51.1535 282° West  Level Estimated
12:04PM 44.0670 -51.4070 273° West 458 527 33,000  Level FlightAware Transoceanic
12:04PM 44.0500 -51.2333 273° West 440 506 33,000  Level Gander Center
12:05PM 44.0741 -51.5830 273° West 458 527 33,000  Level FlightAware Transoceanic
12:05PM 44.0500 -51.4000 270° West 450 518 33,000  Level Gander Center
12:06PM 44.0810 -51.7592 273° West 458 527 33,000  Level FlightAware Transoceanic
12:06PM 44.0667 -51.5500 279° West 450 518 33,000  Level Gander Center
12:07PM 44.0877 -51.9353 273° West 458 527 33,000  Level FlightAware Transoceanic
12:07PM 44.0667 -51.7167 270° West 460 529 33,000  Level Moncton Center
12:08PM 44.0940 -52.1115 273° West 458 527 33,000  Level FlightAware Transoceanic
12:08PM 44.0667 -51.8667 270° West 440 506 33,000  Level Moncton Center
12:09PM 44.1001 -52.2878 273° West 458 527 33,000  Level FlightAware Transoceanic
12:09PM 44.0667 -52.0167 270° West 430 495 33,000  Level Moncton Center
12:10PM 44.0833 -52.2167 277° West 460 529 33,000  Level Moncton Center
12:11PM 44.1000 -52.3833 278° West 440 506 33,000  Level Moncton Center
12:12PM 44.1000 -52.5667 270° West 450 518 33,000  Level Moncton Center
12:13PM 44.1000 -52.7333 270° West 440 506 33,000  Level Moncton Center
12:14PM 44.1000 -52.9167 270° West 460 529 33,000 60 Level Moncton Center
12:15PM 44.1167 -53.0667 279° West 450 518 33,200 360 Climbing Moncton Center
12:16PM 44.1333 -53.2500 277° West 460 529 33,800 360 Climbing Moncton Center
12:17PM 44.1667 -53.4167 286° West 440 506 34,000 60 Climbing Moncton Center
12:18PM 44.1833 -53.5833 278° West 450 518 34,000  Level Moncton Center
12:19PM 44.2167 -53.7667 284° West 440 506 34,000  Level Moncton Center
12:20PM 44.2167 -53.9333 270° West 450 518 34,000  Level Moncton Center
12:21PM 44.2333 -54.1167 277° West 440 506 34,000  Level Moncton Center
12:22PM 44.2667 -54.2667 287° West 450 518 34,000  Level Moncton Center
12:23PM 44.2833 -54.4500 277° West 450 518 34,000  Level Moncton Center
12:24PM 44.3000 -54.6167 278° West 450 518 34,000  Level Moncton Center
12:25PM 44.3333 -54.8500 281° West 450 518 34,000  Level Gander Center
12:26PM 44.3333 -54.9667 270° West 440 506 34,000  Level Moncton Center
12:27PM 44.3667 -55.1167 287° West 430 495 34,000  Level Moncton Center
12:28PM 44.3833 -55.2833 278° West 450 518 34,000  Level Moncton Center
12:29PM 44.4000 -55.4667 277° West 440 506 34,000  Level Moncton Center
12:30PM 44.4000 -55.6333 270° West 440 506 34,000  Level Moncton Center
12:31PM 44.4167 -55.8167 277° West 440 506 34,000  Level Moncton Center
12:37PM 44.5370 -56.9360 277° West 442 509 34,000  Level FlightAware
12:38PM 44.5550 -57.1460 277° West 442 509 34,000  Level FlightAware
12:39PM 44.5670 -57.2760 277° West 441 507 34,000  Level FlightAware
12:39PM 44.5750 -57.3730 277° West 442 509 34,000  Level FlightAware
12:42PM 44.6160 -57.8700 277° West 443 510 34,000  Level FlightAware
12:43PM 44.6260 -57.9910 277° West 444 511 34,000  Level FlightAware
12:44PM 44.6370 -58.1400 276° West 444 511 34,000  Level FlightAware
12:48PM 44.6880 -58.7810 277° West 444 511 34,000  Level FlightAware
12:49PM 44.7010 -58.9470 276° West 443 510 34,000  Level FlightAware
12:49PM 44.7080 -59.0570 275° West 443 510 34,000  Level FlightAware
12:52PM 44.7520 -59.5860 277° West 443 510 34,000  Level FlightAware
12:53PM 44.7660 -59.6950 280° West 444 511 34,000  Level FlightAware
12:54PM 44.7830 -59.8170 281° West 442 509 34,000  Level FlightAware
12:54PM 44.7980 -59.9310 281° West 443 510 34,000  Level FlightAware
12:56PM 44.8300 -60.1700 281° West 441 507 34,000  Level FlightAware
12:57PM 44.8460 -60.2930 280° West 442 509 34,000  Level FlightAware
12:57PM 44.8610 -60.4170 280° West 442 509 34,000  Level FlightAware
12:58PM 44.8750 -60.5300 280° West 442 509 34,000  Level FlightAware
12:59PM 44.8890 -60.6380 280° West 443 510 34,000  Level FlightAware
12:59PM 44.9040 -60.7640 280° West 443 510 34,000  Level FlightAware
01:03PM 44.9720 -61.3530 279° West 444 511 34,000  Level FlightAware
01:04PM 44.9820 -61.4430 279° West 444 511 34,000  Level FlightAware
01:06PM 45.0220 -61.7990 279° West 444 511 34,000  Level FlightAware
01:08PM 45.0410 -61.9750 279° West 444 511 34,000  Level FlightAware
01:08PM 45.0550 -62.0970 279° West 444 511 34,000  Level FlightAware
01:09PM 45.0640 -62.1820 279° West 444 511 34,000  Level FlightAware
01:14PM 45.1380 -63.3330 276° West 436 502 34,000  Level FlightAware
01:16PM 45.1670 -63.6050 279° West 436 502 34,000  Level FlightAware
01:17PM 45.1800 -63.7330 278° West 435 501 34,000  Level FlightAware
01:18PM 45.1930 -63.8570 279° West 435 501 34,000  Level FlightAware
01:18PM 45.2080 -64.0130 278° West 436 502 34,000  Level FlightAware
01:19PM 45.2240 -64.1690 278° West 435 501 34,000  Level FlightAware
01:22PM 45.2630 -64.5680 278° West 436 502 34,000  Level FlightAware
01:22PM 45.2750 -64.6980 278° West 438 504 34,000  Level FlightAware
01:23PM 45.2860 -64.8200 277° West 438 504 34,000  Level FlightAware
01:24PM 45.2960 -64.9210 278° West 439 505 34,000  Level FlightAware
01:24PM 45.3060 -65.0420 277° West 440 506 34,000  Level FlightAware
01:26PM 45.3320 -65.3280 277° West 442 509 34,000  Level FlightAware
01:27PM 45.3420 -65.4500 277° West 443 510 34,000  Level FlightAware
01:28PM 45.3530 -65.5710 277° West 443 510 34,000  Level FlightAware
01:28PM 45.3650 -65.7020 277° West 443 510 34,000  Level FlightAware
01:29PM 45.3780 -65.8630 277° West 444 511 34,000  Level FlightAware
01:31PM 45.4050 -66.1870 277° West 438 504 34,000  Level FlightAware
01:32PM 45.4140 -66.2960 277° West 437 503 34,000  Level FlightAware
01:32PM 45.4220 -66.3860 277° West 437 503 34,000  Level FlightAware
01:33PM 45.4290 -66.4820 276° West 437 503 34,000  Level FlightAware
01:34PM 45.4440 -66.6600 277° West 437 503 34,000  Level FlightAware
01:35PM 45.4640 -66.9060 277° West 434 499 34,000  Level FlightAware
01:36PM 45.4740 -67.0450 276° West 433 498 34,000  Level FlightAware
01:37PM 45.4800 -67.1420 275° West 433 498 34,000  Level FlightAware
01:38PM 45.4930 -67.2970 277° West 431 496 34,000  Level FlightAware
01:38PM 45.4990 -67.3820 276° West 430 495 34,000  Level FlightAware
01:39PM 45.5070 -67.4940 276° West 430 495 34,000  Level FlightAware
01:40PM 45.5210 -67.6790 276° West 422 486 34,000  Level FlightAware
01:41PM 45.5260 -67.7730 274° West 422 486 34,000  Level FlightAware
01:41PM 45.5380 -67.9200 277° West 421 484 34,000  Level FlightAware
01:42PM 45.5450 -68.0280 275° West 421 484 34,000  Level FlightAware
01:43PM 45.5540 -68.1500 276° West 420 483 34,000  Level FlightAware
01:43PM 45.5610 -68.2710 275° West 419 482 34,000  Level FlightAware
01:44PM 45.5670 -68.3750 275° West 419 482 34,000  Level FlightAware
01:45PM 45.5840 -68.5680 277° West 427 491 34,000  Level FlightAware
01:46PM 45.6020 -68.6900 282° West 428 493 34,000  Level FlightAware
01:47PM 45.6200 -68.8090 282° West 428 493 34,000  Level FlightAware
01:47PM 45.6350 -68.9080 282° West 430 495 34,000  Level FlightAware
01:48PM 45.6530 -69.0190 283° West 433 498 34,000  Level FlightAware
01:49PM 45.6740 -69.1590 282° West 435 501 34,000  Level FlightAware
01:49PM 45.6890 -69.2570 282° West 434 499 34,000  Level FlightAware
01:50PM 45.7090 -69.3810 283° West 432 497 34,000  Level FlightAware
01:51PM 45.7270 -69.5060 282° West 431 496 34,000  Level FlightAware
01:52PM 45.7440 -69.6180 282° West 430 495 34,000  Level FlightAware
01:52PM 45.7630 -69.7420 282° West 430 495 34,000  Level FlightAware
01:53PM 45.7840 -69.8530 285° West 446 513 34,000  Level FlightAware
01:54PM 45.8240 -70.0040 291° West 446 513 34,000  Level FlightAware
01:55PM 45.8860 -70.2380 291° West 449 517 34,000  Level FlightAware
01:56PM 45.9180 -70.3640 290° West 449 517 34,000  Level FlightAware
01:57PM 45.9450 -70.4760 289° West 450 518 34,000  Level FlightAware
01:57PM 45.9730 -70.5880 290° West 452 520 34,000  Level FlightAware
01:58PM 46.0010 -70.7000 290° West 448 516 34,000  Level FlightAware
01:59PM 46.0200 -70.8280 282° West 426 490 34,000  Level FlightAware
01:59PM 46.0280 -70.9250 277° West 430 495 34,000  Level FlightAware
02:00PM 46.0300 -71.0510 271° West 416 479 34,000  Level FlightAware
02:01PM 46.0230 -71.1750 265° West 419 482 34,000  Level FlightAware
02:02PM 46.0170 -71.2870 266° West 420 483 34,000  Level FlightAware
02:02PM 46.0100 -71.4110 265° West 420 483 34,000 -240 Level FlightAware
02:03PM 45.9960 -71.5170 259° West 395 455 33,700 -1,380 Descending FlightAware
02:04PM 45.9780 -71.6150 255° West 387 445 32,200 -2,400 Descending FlightAware
02:04PM 45.9570 -71.7280 255° West 394 453 30,300 -2,520 Descending FlightAware
02:05PM 45.9360 -71.8390 255° West 398 458 28,500 -2,580 Descending FlightAware
02:06PM 45.9160 -71.9430 255° West 395 455 26,700 -2,640 Descending FlightAware
02:07PM 45.8910 -72.0680 254° West 391 450 24,600 -2,460 Descending FlightAware
02:07PM 45.8670 -72.1920 255° West 388 447 22,600 -2,400 Descending FlightAware
02:08PM 45.8500 -72.2780 254° West 386 444 21,200 -2,400 Descending FlightAware
02:09PM 45.8270 -72.3870 253° West 379 436 19,400 -2,100 Descending FlightAware
02:10PM 45.7960 -72.5410 254° West 361 415 17,400 -1,980 Descending FlightAware
02:11PM 45.7760 -72.6420 254° West 356 410 15,800 -1,980 Descending FlightAware
02:13PM 45.7340 -72.9230 258° West 345 397 11,400 -1,740 Descending FlightAware
02:14PM 45.7210 -73.0490 262° West 305 351 10,600 -1,020 Descending FlightAware
02:14PM 45.7120 -73.1330 261° West 276 318 9,900 -1,140 Descending FlightAware
02:21PM 45.5780 -73.6310 249° West 180 207 2,900 -1,140 Descending FlightAware
02:21PM 45.5520 -73.6660 223° Southwest 169 194 2,200 -720 Descending FlightAware
02:22PM 45.5360 -73.6870 223° Southwest 165 190 2,100 -540 Descending FlightAware
02:22PM 45.5220 -73.7040 220° Southwest 159 183 1,700 -1,260 Descending FlightAware
02:23PM 45.4950 -73.7400 223° Southwest 143 165 700 -1,500 Descending FlightAware
02:24PM 45.4730 -73.7690 223° Southwest 33 38 -660 Descending FlightAware
02:25PM 45.4710 -73.7710 215° Southwest 21 24  Level FlightAware